Time;durP1;ratioP1;P1;durP2;ratioP2;P2;SDS_P1;SDS_P2;PMS_P1;PMS_P2;Temp;Humidity;BMP_temperature;BMP_pressure;BME280_temperature;BME280_humidity;BME280_pressure;Samples;Min_cycle;Max_cycle;Signal;HPM_P1;HPM_P2
2022/07/22 00:02:26;;;;;;;7.05;4.80;;;;;;;17.62;100.00;99335.98;1720531;82;21039;-68
2022/07/22 00:04:52;;;;;;;;;;;;;;;17.57;100.00;99340.30;1733397;82;21058;-68
2022/07/22 00:07:19;;;;;;;6.65;4.95;;;;;;;17.54;100.00;99340.89;1726105;82;20130;-68
2022/07/22 00:09:45;;;;;;;8.88;5.12;;;;;;;17.40;100.00;99341.90;1724223;82;21047;-69
2022/07/22 00:12:12;;;;;;;7.40;5.33;;;;;;;17.36;100.00;99347.00;1674907;85;21099;-68
2022/07/22 00:14:39;;;;;;;6.75;4.97;;;;;;;17.36;100.00;99355.25;1668609;85;21083;-68
2022/07/22 00:17:06;;;;;;;6.83;5.20;;;;;;;17.34;100.00;99353.41;1668466;85;21067;-67
2022/07/22 00:19:35;;;;;;;8.65;5.60;;;;;;;17.33;100.00;99355.34;1675840;85;21072;-68
2022/07/22 00:22:01;;;;;;;9.48;5.58;;;;;;;17.30;100.00;99351.05;1662846;85;21052;-68
2022/07/22 00:24:28;;;;;;;9.63;5.28;;;;;;;17.27;100.00;99348.40;1680782;84;21600;-68
2022/07/22 00:26:54;;;;;;;8.15;5.60;;;;;;;17.22;100.00;99352.67;1680715;84;21122;-69
2022/07/22 00:29:21;;;;;;;7.60;5.40;;;;;;;17.16;100.00;99354.55;1692091;84;21631;-68
2022/07/22 00:31:48;;;;;;;8.10;4.83;;;;;;;17.17;100.00;99353.42;1683325;84;21098;-67
2022/07/22 00:34:15;;;;;;;;;;;;;;;17.15;100.00;99350.98;1689436;84;21041;-69
2022/07/22 00:36:41;;;;;;;8.90;5.87;;;;;;;17.15;100.00;99358.42;1703390;83;20140;-68
2022/07/22 00:39:08;;;;;;;9.78;5.40;;;;;;;17.07;100.00;99353.75;1699468;83;21140;-69
2022/07/22 00:41:34;;;;;;;8.83;5.40;;;;;;;17.08;100.00;99355.34;1712796;83;21160;-69
2022/07/22 00:44:03;;;;;;;;;;;;;;;17.08;100.00;99347.91;1700093;83;21065;-68
2022/07/22 00:46:30;;;;;;;8.08;5.55;;;;;;;17.02;100.00;99356.64;1704396;83;20522;-68
2022/07/22 00:48:56;;;;;;;8.68;5.25;;;;;;;16.93;100.00;99355.28;1706423;83;21403;-68
2022/07/22 00:51:24;;;;;;;7.70;4.83;;;;;;;16.92;100.00;99352.28;1716123;83;21583;-68
2022/07/22 00:53:50;;;;;;;7.65;5.55;;;;;;;16.91;100.00;99354.78;1701199;83;21028;-68
2022/07/22 00:56:17;;;;;;;8.60;5.50;;;;;;;16.89;100.00;99359.81;1704671;83;21505;-68
2022/07/22 00:58:45;;;;;;;11.73;5.80;;;;;;;16.86;100.00;99356.33;1694435;83;21571;-69
2022/07/22 01:01:12;;;;;;;10.18;5.60;;;;;;;16.86;100.00;99353.58;1686510;84;21038;-68
2022/07/22 01:03:39;;;;;;;13.00;5.78;;;;;;;16.84;100.00;99355.83;1690009;84;21482;-68
2022/07/22 01:06:06;;;;;;;;;;;;;;;16.82;100.00;99353.98;1681126;85;21102;-67
2022/07/22 01:08:33;;;;;;;9.80;5.83;;;;;;;16.76;100.00;99356.05;1692853;84;20118;-68
2022/07/22 01:11:14;;;;;;;10.35;6.37;;;;;;;16.70;100.00;99355.98;1710213;83;21062;-68
2022/07/22 01:13:43;;;;;;;7.83;5.62;;;;;;;16.70;100.00;99361.47;1706166;83;21050;-69
2022/07/22 01:16:10;;;;;;;12.25;6.12;;;;;;;16.70;100.00;99357.91;1710717;83;21117;-69
2022/07/22 01:18:38;;;;;;;9.45;5.90;;;;;;;16.70;100.00;99360.09;1707999;83;21073;-68
2022/07/22 01:21:06;;;;;;;9.63;5.65;;;;;;;16.67;100.00;99369.55;1712722;83;21061;-67
2022/07/22 01:23:33;;;;;;;9.93;5.42;;;;;;;16.62;100.00;99358.70;1683720;84;21062;-67
2022/07/22 01:25:59;;;;;;;7.05;4.90;;;;;;;16.60;100.00;99365.91;1683455;84;21114;-66
2022/07/22 01:28:26;;;;;;;9.18;6.05;;;;;;;16.57;100.00;99361.61;1680624;84;21051;-67
2022/07/22 01:30:53;;;;;;;8.48;5.70;;;;;;;16.56;100.00;99368.23;1684072;84;21079;-67
2022/07/22 01:33:20;;;;;;;10.03;6.10;;;;;;;16.55;100.00;99367.38;1676077;84;21023;-67
2022/07/22 01:35:49;;;;;;;9.55;4.90;;;;;;;16.50;100.00;99372.23;1676823;84;21063;-67
2022/07/22 01:38:17;;;;;;;8.18;5.33;;;;;;;16.46;100.00;99372.06;1651986;84;21052;-67
2022/07/22 01:40:43;;;;;;;7.20;5.58;;;;;;;16.46;100.00;99373.99;1679382;84;21050;-67
2022/07/22 01:43:11;;;;;;;8.08;5.90;;;;;;;16.42;100.00;99374.64;1679832;84;21019;-68
2022/07/22 01:45:37;;;;;;;7.75;5.72;;;;;;;16.40;100.00;99376.09;1693254;84;21643;-68
2022/07/22 01:48:04;;;;;;;6.97;5.25;;;;;;;16.38;100.00;99377.77;1688457;84;21098;-68
2022/07/22 01:50:31;;;;;;;9.65;6.00;;;;;;;16.37;100.00;99384.94;1680400;84;21059;-67
2022/07/22 01:52:58;;;;;;;9.53;5.90;;;;;;;16.35;100.00;99379.78;1684569;84;21106;-67
2022/07/22 01:55:25;;;;;;;9.85;5.92;;;;;;;16.33;100.00;99388.89;1649306;84;21054;-67
2022/07/22 01:57:51;;;;;;;7.58;5.80;;;;;;;16.32;100.00;99383.17;1679134;84;21645;-67
2022/07/22 02:00:20;;;;;;;10.85;6.58;;;;;;;16.33;100.00;99390.85;1688853;84;21601;-67
2022/07/22 02:02:46;;;;;;;10.05;6.53;;;;;;;16.30;100.00;99393.65;1677501;84;21097;-67
2022/07/22 02:05:13;;;;;;;11.33;6.00;;;;;;;16.29;100.00;99396.17;1684546;84;21051;-66
2022/07/22 02:07:39;;;;;;;9.55;5.92;;;;;;;16.28;100.00;99398.66;1653094;86;21066;-66
2022/07/22 02:10:07;;;;;;;8.60;6.10;;;;;;;16.26;100.00;99395.41;1716388;82;21091;-67
2022/07/22 02:12:36;;;;;;;8.30;5.97;;;;;;;16.27;100.00;99390.73;1724851;82;21422;-65
2022/07/22 02:15:04;;;;;;;9.80;5.87;;;;;;;16.24;100.00;99396.30;1718606;82;21043;-65
2022/07/22 02:17:33;;;;;;;9.93;5.97;;;;;;;16.20;100.00;99398.05;1727231;82;21059;-66
2022/07/22 02:20:01;;;;;;;7.05;5.75;;;;;;;16.17;100.00;99398.69;1716973;82;21530;-67
2022/07/22 02:22:27;;;;;;;7.45;5.55;;;;;;;16.16;100.00;99409.42;1729096;82;21098;-67
2022/07/22 02:24:54;;;;;;;7.53;5.67;;;;;;;16.16;100.00;99409.42;1710551;83;21056;-67
2022/07/22 02:27:20;;;;;;;7.67;5.30;;;;;;;16.18;100.00;99409.12;1736515;81;21585;-66
2022/07/22 02:29:46;;;;;;;;;;;;;;;16.17;100.00;99411.61;1743223;81;21003;-66
2022/07/22 02:32:13;;;;;;;9.50;6.08;;;;;;;16.18;100.00;99411.86;1746005;81;20106;-66
2022/07/22 02:34:39;;;;;;;7.12;5.35;;;;;;;16.09;100.00;99413.19;1745796;81;21026;-67
2022/07/22 02:37:07;;;;;;;7.92;6.17;;;;;;;16.07;100.00;99415.45;1737932;81;21743;-66
2022/07/22 02:39:34;;;;;;;9.05;5.72;;;;;;;16.07;100.00;99411.33;1747989;81;21070;-66
2022/07/22 02:42:01;;;;;;;8.18;5.97;;;;;;;16.12;100.00;99418.62;1750984;81;21015;-67
2022/07/22 02:44:27;;;;;;;6.87;5.70;;;;;;;16.18;100.00;99413.23;1742914;81;21098;-67
2022/07/22 02:46:55;;;;;;;7.22;5.87;;;;;;;16.25;100.00;99417.16;1736581;81;21113;-67
2022/07/22 02:49:23;;;;;;;8.53;5.85;;;;;;;16.33;100.00;99421.84;1739134;81;21069;-68
2022/07/22 02:51:50;;;;;;;8.63;6.87;;;;;;;16.39;100.00;99423.35;1745262;81;21035;-67
2022/07/22 02:54:17;;;;;;;8.83;6.50;;;;;;;16.42;100.00;99417.78;1753961;81;21129;-67
2022/07/22 02:56:44;;;;;;;8.85;5.80;;;;;;;16.42;100.00;99426.02;1744692;81;21094;-67
2022/07/22 02:59:12;;;;;;;8.35;6.28;;;;;;;16.44;100.00;99431.44;1739679;81;21031;-67
2022/07/22 03:01:39;;;;;;;9.08;6.42;;;;;;;16.47;100.00;99432.76;1737439;81;21102;-67
2022/07/22 03:04:06;;;;;;;8.33;6.85;;;;;;;16.50;100.00;99431.30;1752065;81;21019;-70
2022/07/22 03:06:35;;;;;;;8.23;6.30;;;;;;;16.55;100.00;99434.70;1734295;81;21050;-67
2022/07/22 03:09:04;;;;;;;8.83;6.95;;;;;;;16.58;100.00;99425.84;1749731;81;20951;-68
2022/07/22 03:11:31;;;;;;;8.38;6.92;;;;;;;16.61;100.00;99420.30;1754738;81;21006;-66
2022/07/22 03:13:58;;;;;;;8.78;7.12;;;;;;;16.64;100.00;99427.34;1753070;81;21596;-67
2022/07/22 03:16:24;;;;;;;10.85;7.67;;;;;;;16.68;100.00;99422.02;1747012;81;21039;-67
2022/07/22 03:18:51;;;;;;;;;;;;;;;16.68;100.00;99422.83;1749159;81;21010;-67
2022/07/22 03:21:17;;;;;;;8.33;6.65;;;;;;;16.71;100.00;99429.06;1738152;81;20132;-66
2022/07/22 03:23:44;;;;;;;10.50;7.50;;;;;;;16.73;100.00;99431.47;1745848;81;21573;-66
2022/07/22 03:26:11;;;;;;;11.33;7.05;;;;;;;16.80;100.00;99431.25;1728794;82;21083;-67
2022/07/22 03:28:37;;;;;;;9.60;6.80;;;;;;;16.85;100.00;99434.42;1736809;82;21042;-66
2022/07/22 03:31:04;;;;;;;;;;;;;;;16.93;100.00;99428.70;1732924;82;21047;-67
2022/07/22 03:33:30;;;;;;;9.85;7.00;;;;;;;16.99;100.00;99430.98;1715890;82;20169;-66
2022/07/22 03:35:57;;;;;;;9.60;6.75;;;;;;;17.04;100.00;99432.18;1736901;82;21067;-66
2022/07/22 03:38:24;;;;;;;9.35;6.72;;;;;;;17.12;100.00;99425.08;1725917;82;20987;-67
2022/07/22 03:40:50;;;;;;;11.03;6.75;;;;;;;17.17;100.00;99423.55;1749850;82;21083;-66
2022/07/22 03:43:17;;;;;;;9.53;7.40;;;;;;;17.22;100.00;99430.25;1737900;82;21494;-67
2022/07/22 03:45:44;;;;;;;9.85;7.00;;;;;;;17.24;100.00;99431.58;1730089;82;21592;-67
2022/07/22 03:48:11;;;;;;;9.03;6.47;;;;;;;17.30;100.00;99428.89;1739771;82;20952;-67
2022/07/22 03:50:39;;;;;;;8.28;6.75;;;;;;;17.48;100.00;99428.33;1747424;82;21039;-67
2022/07/22 03:53:06;;;;;;;10.65;7.28;;;;;;;17.68;100.00;99436.51;1731570;82;21489;-67
2022/07/22 03:55:34;;;;;;;8.00;6.55;;;;;;;17.79;100.00;99428.97;1733263;82;21513;-67
2022/07/22 03:58:01;;;;;;;9.85;7.05;;;;;;;17.96;100.00;99431.47;1749339;82;20972;-67
2022/07/22 04:00:29;;;;;;;11.00;7.15;;;;;;;18.09;100.00;99430.45;1710879;82;21038;-67
2022/07/22 04:02:56;;;;;;;10.45;6.83;;;;;;;18.31;100.00;99429.66;1736250;82;21150;-67
2022/07/22 04:05:28;;;;;;;11.22;7.08;;;;;;;18.52;100.00;99424.81;1718383;82;21517;-67
2022/07/22 04:07:55;;;;;;;8.05;6.33;;;;;;;18.70;100.00;99423.59;1733105;82;21082;-68
2022/07/22 04:10:22;;;;;;;8.30;6.17;;;;;;;18.92;100.00;99425.25;1742069;82;21086;-67
2022/07/22 04:12:48;;;;;;;10.90;6.33;;;;;;;19.13;100.00;99417.20;1739694;82;21118;-68
2022/07/22 04:15:17;;;;;;;9.75;6.87;;;;;;;19.23;100.00;99419.59;1729514;82;20998;-67
2022/07/22 04:17:43;;;;;;;8.60;6.85;;;;;;;19.25;100.00;99427.51;1752240;82;21058;-67
2022/07/22 04:20:12;;;;;;;7.25;6.33;;;;;;;19.34;100.00;99429.05;1737176;82;21553;-67
2022/07/22 04:22:41;;;;;;;10.55;6.90;;;;;;;19.55;100.00;99429.09;1729488;82;21079;-67
2022/07/22 04:25:08;;;;;;;8.13;6.28;;;;;;;19.82;100.00;99431.27;1729765;81;21090;-67
2022/07/22 04:27:35;;;;;;;9.50;5.80;;;;;;;20.05;100.00;99422.59;1743434;82;21062;-68
2022/07/22 04:30:03;;;;;;;7.75;6.12;;;;;;;20.12;100.00;99423.62;1734727;82;21003;-68
2022/07/22 04:32:30;;;;;;;8.30;5.62;;;;;;;20.33;100.00;99424.38;1716473;82;21062;-67
2022/07/22 04:34:56;;;;;;;8.10;6.03;;;;;;;20.49;100.00;99419.56;1732793;82;21062;-66
2022/07/22 04:37:23;;;;;;;8.93;6.28;;;;;;;20.41;100.00;99414.37;1746248;82;21022;-68
2022/07/22 04:39:49;;;;;;;8.90;5.65;;;;;;;20.35;100.00;99415.18;1740773;82;21018;-67
2022/07/22 04:42:16;;;;;;;7.53;5.65;;;;;;;20.43;100.00;99416.80;1737699;82;20983;-67
2022/07/22 04:44:44;;;;;;;7.85;5.87;;;;;;;20.66;100.00;99420.14;1739133;82;21015;-68
2022/07/22 04:47:11;;;;;;;6.80;5.30;;;;;;;20.69;100.00;99411.14;1724447;82;21613;-67
2022/07/22 04:49:39;;;;;;;7.37;5.95;;;;;;;20.76;100.00;99414.14;1728550;82;21280;-68
2022/07/22 04:52:06;;;;;;;8.45;5.87;;;;;;;20.84;100.00;99415.98;1732631;82;21082;-68
2022/07/22 04:54:37;;;;;;;6.45;5.75;;;;;;;20.96;100.00;99411.02;1735132;82;21054;-68
2022/07/22 04:57:04;;;;;;;6.78;5.62;;;;;;;20.97;100.00;99407.69;1730118;82;21027;-67
2022/07/22 04:59:30;;;;;;;9.68;5.47;;;;;;;21.01;100.00;99412.15;1739841;82;21473;-68
2022/07/22 05:01:57;;;;;;;6.78;5.30;;;;;;;21.13;100.00;99414.13;1737948;82;21624;-68
2022/07/22 05:04:24;;;;;;;6.87;4.70;;;;;;;21.22;100.00;99408.67;1734837;82;21011;-68
2022/07/22 05:06:51;;;;;;;7.83;4.85;;;;;;;21.26;100.00;99404.05;1735145;82;21012;-67
2022/07/22 05:09:17;;;;;;;6.30;4.90;;;;;;;21.25;100.00;99411.34;1709937;82;21030;-68
2022/07/22 05:11:43;;;;;;;5.33;4.40;;;;;;;21.36;100.00;99416.63;1736266;82;21031;-68
2022/07/22 05:14:12;;;;;;;6.58;5.30;;;;;;;21.58;100.00;99412.48;1745011;82;21039;-66
2022/07/22 05:16:38;;;;;;;5.92;4.37;;;;;;;21.69;100.00;99408.05;1737747;82;21117;-68
2022/07/22 05:19:05;;;;;;;6.75;4.30;;;;;;;21.91;100.00;99410.29;1731859;82;21026;-68
2022/07/22 05:21:32;;;;;;;7.67;4.10;;;;;;;22.08;100.00;99403.60;1730090;82;21589;-67
2022/07/22 05:24:00;;;;;;;6.05;4.28;;;;;;;22.07;100.00;99404.18;1741466;80;21023;-67
2022/07/22 05:26:29;;;;;;;7.55;4.78;;;;;;;21.97;100.00;99401.13;1734502;82;21043;-67
2022/07/22 05:28:56;;;;;;;6.75;4.35;;;;;;;21.80;100.00;99400.84;1729993;82;20975;-67
2022/07/22 05:31:23;;;;;;;6.33;4.47;;;;;;;21.80;100.00;99400.84;1749155;81;21094;-66
2022/07/22 05:33:50;;;;;;;5.45;4.70;;;;;;;21.85;100.00;99413.07;1726042;82;21059;-67
2022/07/22 05:36:24;;;;;;;10.05;4.85;;;;;;;22.09;100.00;99414.92;1725746;81;21043;-67
2022/07/22 05:38:52;;;;;;;8.05;4.70;;;;;;;22.82;100.00;99416.59;1730154;81;20999;-65
2022/07/22 05:41:20;;;;;;;5.05;4.03;;;;;;;22.82;100.00;99416.59;1724900;81;21011;-67
2022/07/22 05:43:46;;;;;;;7.17;4.90;;;;;;;22.97;100.00;99412.17;1732319;82;21574;-68
2022/07/22 05:46:13;;;;;;;6.35;3.80;;;;;;;22.94;100.00;99417.88;1697340;82;21530;-67
2022/07/22 05:48:39;;;;;;;5.28;3.95;;;;;;;22.86;100.00;99416.09;1734210;82;21497;-67
2022/07/22 05:51:12;;;;;;;6.28;3.65;;;;;;;22.78;100.00;99405.41;1728148;81;21134;-66
2022/07/22 05:53:40;;;;;;;7.58;3.70;;;;;;;22.78;100.00;99405.41;1721302;81;21048;-67
2022/07/22 05:56:08;;;;;;;7.92;4.08;;;;;;;22.81;100.00;99414.39;1738612;81;21410;-67
2022/07/22 05:58:35;;;;;;;5.83;3.52;;;;;;;22.79;100.00;99400.67;1726353;82;20988;-67
2022/07/22 06:01:01;;;;;;;6.35;3.40;;;;;;;22.87;100.00;99418.30;1722422;81;21063;-68
2022/07/22 06:03:29;;;;;;;4.62;3.20;;;;;;;23.04;100.00;99407.59;1729688;81;21522;-68
2022/07/22 06:05:56;;;;;;;5.17;3.30;;;;;;;23.21;100.00;99407.19;1745869;82;21516;-67
2022/07/22 06:08:22;;;;;;;7.30;3.67;;;;;;;23.39;100.00;99401.20;1733370;82;21027;-68
2022/07/22 06:10:52;;;;;;;7.60;3.52;;;;;;;23.50;100.00;99407.23;1721540;81;21696;-69
2022/07/22 06:13:18;;;;;;;7.42;3.20;;;;;;;23.58;100.00;99408.19;1726232;81;20991;-69
2022/07/22 06:15:45;;;;;;;6.08;3.42;;;;;;;23.51;100.00;99413.02;1731356;82;21019;-68
2022/07/22 06:18:12;;;;;;;4.55;2.90;;;;;;;23.38;100.00;99410.72;1738905;81;20964;-68
2022/07/22 06:20:39;;;;;;;4.03;2.50;;;;;;;23.34;100.00;99407.06;1743495;82;21051;-68
2022/07/22 06:23:05;;;;;;;4.53;2.67;;;;;;;23.29;100.00;99401.20;1729349;81;21008;-67
2022/07/22 06:25:32;;;;;;;4.33;2.83;;;;;;;23.27;100.00;99404.94;1720967;80;21541;-69
2022/07/22 06:27:59;;;;;;;5.33;2.70;;;;;;;23.14;100.00;99403.44;1701117;81;21035;-68
2022/07/22 06:30:26;;;;;;;3.37;2.65;;;;;;;23.09;100.00;99398.19;1729326;81;21087;-67
2022/07/22 06:32:53;;;;;;;3.67;2.27;;;;;;;23.18;100.00;99398.77;1731528;81;21040;-69
2022/07/22 06:35:21;;;;;;;4.62;2.20;;;;;;;23.36;100.00;99399.16;1722266;82;21067;-68
2022/07/22 06:37:48;;;;;;;3.58;2.17;;;;;;;23.59;100.00;99402.28;1726104;81;21024;-67
2022/07/22 06:40:15;;;;;;;7.03;2.47;;;;;;;23.75;100.00;99393.27;1729735;82;20999;-68
2022/07/22 06:42:52;;;;;;;4.47;1.90;;;;;;;23.86;100.00;99400.41;1709616;81;21012;-69
2022/07/22 06:45:23;;;;;;;4.17;1.95;;;;;;;23.89;100.00;99396.09;1723382;82;21067;-68
2022/07/22 06:47:57;;;;;;;3.15;1.82;;;;;;;24.00;100.00;99397.91;1711311;82;21407;-68
2022/07/22 06:50:24;;;;;;;1.80;1.40;;;;;;;24.00;100.00;99398.48;1711670;82;21019;-68
2022/07/22 06:52:50;;;;;;;4.85;1.30;;;;;;;23.93;100.00;99383.06;1712677;82;21035;-68
2022/07/22 06:55:17;;;;;;;3.62;1.40;;;;;;;23.91;100.00;99384.03;1717441;82;21063;-69
2022/07/22 06:57:45;;;;;;;3.40;1.70;;;;;;;24.01;100.00;99393.95;1722255;82;21048;-67
2022/07/22 07:00:13;;;;;;;3.33;1.62;;;;;;;23.95;100.00;99394.64;1714764;81;20979;-68
2022/07/22 07:02:45;;;;;;;3.15;1.55;;;;;;;23.76;100.00;99393.48;1720833;82;21625;-67
2022/07/22 07:05:12;;;;;;;3.77;1.62;;;;;;;23.75;100.00;99396.04;1720817;82;21404;-68
2022/07/22 07:07:39;;;;;;;2.00;1.40;;;;;;;23.74;100.00;99396.39;1719387;82;21020;-68
2022/07/22 07:10:09;;;;;;;2.67;1.50;;;;;;;23.62;100.00;99395.18;1715963;82;21023;-68
2022/07/22 07:12:38;;;;;;;5.00;1.75;;;;;;;23.70;100.00;99402.49;1714219;82;21087;-68
2022/07/22 07:15:09;;;;;;;2.20;1.37;;;;;;;23.88;100.00;99403.62;1718125;81;21519;-69
2022/07/22 07:17:36;;;;;;;3.75;1.60;;;;;;;24.02;100.00;99420.56;1722496;81;21052;-69
2022/07/22 07:20:07;;;;;;;3.50;1.50;;;;;;;24.03;100.00;99409.67;1711035;82;21063;-67
2022/07/22 07:22:35;;;;;;;2.77;1.50;;;;;;;24.09;100.00;99417.92;1696913;82;21074;-68
2022/07/22 07:25:04;;;;;;;4.15;1.60;;;;;;;;;;1728122;82;21027;-67
2022/07/22 07:27:33;;;;;;;1.90;1.50;;;;;;;24.10;100.00;99418.14;1731364;80;21011;-68
2022/07/22 07:30:00;;;;;;;5.95;1.50;;;;;;;24.22;100.00;99411.06;1732026;82;21035;-69
2022/07/22 07:32:26;;;;;;;4.53;1.80;;;;;;;24.34;100.00;99410.66;1726867;82;21137;-68
2022/07/22 07:34:53;;;;;;;4.70;1.75;;;;;;;24.52;100.00;99410.35;1739544;82;21035;-69
2022/07/22 07:37:19;;;;;;;5.53;2.02;;;;;;;24.68;100.00;99413.23;1734127;80;21637;-69
2022/07/22 07:39:45;;;;;;;4.47;1.80;;;;;;;24.80;100.00;99402.45;1733679;80;21410;-69
2022/07/22 07:42:13;;;;;;;3.92;1.60;;;;;;;24.94;100.00;99411.67;1736982;82;21040;-71
2022/07/22 07:44:40;;;;;;;2.77;1.60;;;;;;;25.16;100.00;99399.64;1731962;82;21003;-68
2022/07/22 07:47:06;;;;;;;2.60;1.67;;;;;;;25.37;100.00;99399.92;1703830;82;21094;-71
2022/07/22 07:49:34;;;;;;;3.40;1.82;;;;;;;25.19;100.00;99402.47;1736026;82;21625;-72
2022/07/22 07:52:02;;;;;;;3.08;1.75;;;;;;;25.11;100.00;99418.08;1746592;82;21664;-72
2022/07/22 07:54:29;;;;;;;3.87;1.87;;;;;;;25.23;100.00;99413.66;1742905;82;21035;-72
2022/07/22 07:56:57;;;;;;;6.17;1.70;;;;;;;25.25;100.00;99406.55;1728086;80;21074;-72
2022/07/22 07:59:24;;;;;;;2.77;1.80;;;;;;;25.33;100.00;99406.65;1740557;82;20971;-72
2022/07/22 08:01:51;;;;;;;3.58;1.90;;;;;;;25.33;100.00;99419.96;1739895;80;21008;-72
2022/07/22 08:04:18;;;;;;;4.17;1.90;;;;;;;25.37;100.00;99416.64;1725069;82;21038;-72
2022/07/22 08:06:45;;;;;;;3.27;1.72;;;;;;;25.16;100.00;99418.55;1738152;82;21569;-72
2022/07/22 08:09:12;;;;;;;5.78;2.40;;;;;;;25.16;100.00;99419.94;1732030;80;21042;-72
2022/07/22 08:11:40;;;;;;;3.37;1.82;;;;;;;25.21;100.00;99418.23;1724325;80;21074;-73
2022/07/22 08:14:26;;;;;;;4.00;2.20;;;;;;;25.38;100.00;99414.66;1736164;80;20996;-73
2022/07/22 08:16:54;;;;;;;3.12;1.90;;;;;;;25.43;100.00;99414.34;1726098;80;21063;-72
2022/07/22 08:19:22;;;;;;;3.80;1.60;;;;;;;25.56;100.00;99426.88;1730597;82;21015;-75
2022/07/22 08:21:50;;;;;;;3.75;1.67;;;;;;;25.69;100.00;99422.06;1724926;82;21706;-72
2022/07/22 08:24:18;;;;;;;2.00;1.37;;;;;;;25.64;100.00;99420.21;1733117;82;21015;-73
2022/07/22 08:26:45;;;;;;;3.33;1.40;;;;;;;25.66;100.00;99413.06;1724734;82;21015;-72
2022/07/22 08:29:12;;;;;;;3.42;1.60;;;;;;;25.84;100.00;99419.44;1698018;82;20987;-72
2022/07/22 08:31:39;;;;;;;5.85;1.60;;;;;;;26.03;100.00;99415.08;1732182;81;21354;-71
2022/07/22 08:34:08;;;;;;;4.35;1.72;;;;;;;26.18;100.00;99416.25;1729724;82;20995;-73
2022/07/22 08:36:36;;;;;;;2.92;1.90;;;;;;;26.30;100.00;99419.36;1731085;82;21031;-74
2022/07/22 08:41:07;;;;;;;;;;;;;;;26.39;99.85;99420.45;1799064;78;22876;-65
2022/07/22 08:43:35;;;;;;;;;;;;;;;26.25;99.90;99423.11;1739961;82;20109;-69
2022/07/22 08:46:01;;;;;;;4.55;1.70;;;;;;;26.17;100.00;99416.06;1736121;82;20110;-66
2022/07/22 08:48:30;;;;;;;2.35;1.20;;;;;;;26.17;94.53;99427.78;1730878;81;21528;-65
2022/07/22 08:51:02;;;;;;;2.15;1.07;;;;;;;26.29;90.60;99422.55;1739258;80;21695;-69
2022/07/22 08:53:33;;;;;;;2.55;1.35;;;;;;;26.25;92.16;99428.69;1724953;82;21007;-65
2022/07/22 08:56:02;;;;;;;3.10;1.30;;;;;;;26.20;96.44;99420.06;1740190;80;21188;-67
2022/07/22 08:58:31;;;;;;;2.15;1.37;;;;;;;26.37;100.00;99424.20;1727344;82;21018;-66
2022/07/22 09:01:11;;;;;;;2.67;1.40;;;;;;;26.39;91.15;99424.64;1740896;82;21054;-68
2022/07/22 09:03:55;;;;;;;2.50;1.35;;;;;;;26.21;90.30;99422.48;1727082;82;20978;-67
2022/07/22 09:06:26;;;;;;;1.72;1.10;;;;;;;26.05;93.11;99422.46;1718577;82;21369;-69
2022/07/22 09:09:04;;;;;;;1.90;0.90;;;;;;;26.09;92.49;99424.70;1737611;82;20999;-66
2022/07/22 09:11:36;;;;;;;3.55;1.00;;;;;;;26.21;86.24;99418.89;1745469;82;21659;-68
2022/07/22 09:14:19;;;;;;;3.72;1.40;;;;;;;26.20;86.40;99409.72;1715834;82;21072;-67
2022/07/22 09:16:48;;;;;;;1.98;1.12;;;;;;;26.27;89.02;99422.12;1724285;82;21082;-66
2022/07/22 09:19:28;;;;;;;2.85;1.32;;;;;;;26.06;90.65;99421.28;1725528;82;21094;-65
2022/07/22 09:22:00;;;;;;;3.12;1.40;;;;;;;25.78;97.33;99428.75;1717247;82;21090;-68
2022/07/22 09:24:32;;;;;;;2.98;1.40;;;;;;;25.67;99.76;99423.63;1733268;82;21066;-67
2022/07/22 09:27:24;;;;;;;4.00;0.85;;;;;;;25.59;100.00;99426.11;1730166;82;21042;-68
2022/07/22 09:29:56;;;;;;;2.08;1.10;;;;;;;25.51;98.45;99425.80;1741501;82;21026;-69
2022/07/22 09:32:24;;;;;;;2.40;1.10;;;;;;;25.40;96.19;99435.38;1737129;82;21039;-68
2022/07/22 09:34:56;;;;;;;2.17;0.80;;;;;;;25.37;92.86;99433.36;1733800;82;21390;-68
2022/07/22 09:37:26;;;;;;;4.35;0.95;;;;;;;25.39;88.40;99431.59;1713236;82;21022;-66
2022/07/22 09:39:53;;;;;;;3.15;0.93;;;;;;;25.30;90.68;99438.02;1742083;82;21066;-65
2022/07/22 09:42:21;;;;;;;3.12;1.00;;;;;;;25.34;91.05;99445.26;1707876;82;21037;-67
2022/07/22 09:44:48;;;;;;;4.78;1.10;;;;;;;25.34;88.05;99432.72;1749304;82;21566;-71
2022/07/22 09:47:29;;;;;;;1.87;0.90;;;;;;;25.20;89.23;99436.12;1735015;82;21562;-71
2022/07/22 09:50:05;;;;;;;2.87;0.90;;;;;;;25.20;97.73;99433.33;1738998;82;21042;-73
2022/07/22 09:52:37;;;;;;;3.55;0.90;;;;;;;25.32;85.37;99442.06;1686728;82;21031;-70
2022/07/22 09:55:07;;;;;;;1.92;0.80;;;;;;;25.37;86.10;99429.77;1736759;82;21066;-69
2022/07/22 09:57:34;;;;;;;4.50;0.90;;;;;;;25.34;80.79;99443.06;1750719;82;21058;-67
2022/07/22 10:00:01;;;;;;;1.77;0.72;;;;;;;25.28;84.06;99440.39;1746153;82;21042;-67
2022/07/22 10:02:51;;;;;;;2.47;1.02;;;;;;;25.25;83.42;99439.17;1693215;82;21043;-69
2022/07/22 10:05:25;;;;;;;2.80;0.90;;;;;;;25.24;84.75;99435.58;1693972;82;21092;-68
2022/07/22 10:07:52;;;;;;;1.65;0.70;;;;;;;25.25;84.71;99432.21;1741431;82;21071;-69
2022/07/22 10:10:25;;;;;;;1.65;0.80;;;;;;;25.32;82.11;99428.72;1739316;82;21066;-71
2022/07/22 10:12:54;;;;;;;1.75;0.82;;;;;;;25.45;84.21;99428.09;1744021;82;21524;-71
2022/07/22 10:15:23;;;;;;;2.98;0.78;;;;;;;25.51;79.25;99427.19;1752355;82;21086;-67
2022/07/22 10:17:58;;;;;;;2.25;0.98;;;;;;;25.50;80.31;99415.23;1742190;82;21371;-71
2022/07/22 10:20:28;;;;;;;2.60;0.90;;;;;;;25.51;84.20;99429.98;1747356;82;21066;-68
2022/07/22 10:22:59;;;;;;;3.95;1.72;;;;;;;25.60;82.92;99432.72;1722468;83;21568;-69
2022/07/22 10:25:29;;;;;;;3.02;1.70;;;;;;;25.68;83.47;99426.64;1729567;82;21558;-71
2022/07/22 10:28:04;;;;;;;1.57;1.07;;;;;;;25.71;84.78;99428.66;1736459;82;21043;-69
2022/07/22 10:30:40;;;;;;;4.60;1.30;;;;;;;25.60;81.78;99431.91;1723537;82;21096;-67
2022/07/22 10:33:13;;;;;;;2.40;1.05;;;;;;;25.60;81.78;99431.91;1738118;81;21007;-69
2022/07/22 10:35:59;;;;;;;3.15;1.00;;;;;;;25.56;79.11;99435.23;1742783;82;21397;-70
2022/07/22 10:38:27;;;;;;;1.87;1.02;;;;;;;25.54;79.60;99425.07;1750211;82;21014;-67
2022/07/22 10:41:04;;;;;;;2.20;1.02;;;;;;;25.53;84.91;99427.05;1744081;81;21800;-70
2022/07/22 10:43:43;;;;;;;1.65;0.90;;;;;;;25.60;83.60;99417.38;1745605;82;21430;-67
2022/07/22 10:46:10;;;;;;;3.75;0.95;;;;;;;25.71;86.72;99432.84;1732161;82;21051;-67
2022/07/22 10:48:44;;;;;;;1.90;0.82;;;;;;;25.85;83.24;99428.83;1717465;83;20991;-68
2022/07/22 10:51:19;;;;;;;2.75;0.90;;;;;;;25.96;88.77;99433.94;1730497;82;21562;-68
2022/07/22 10:53:56;;;;;;;3.22;0.78;;;;;;;26.12;79.30;99430.31;1727488;82;20991;-68
2022/07/22 10:56:32;;;;;;;1.98;1.15;;;;;;;26.17;80.30;99431.97;1727649;82;21024;-67
2022/07/22 10:59:16;;;;;;;4.40;0.70;;;;;;;26.20;80.29;99434.02;1725357;82;20936;-67
2022/07/22 11:01:46;;;;;;;2.17;0.60;;;;;;;26.22;75.02;99438.02;1722462;82;21405;-68
2022/07/22 11:04:24;;;;;;;1.52;0.60;;;;;;;26.10;67.43;99430.50;1717240;83;20960;-68
2022/07/22 11:06:56;;;;;;;4.78;1.00;;;;;;;25.98;67.61;99439.92;1730819;82;21680;-69
2022/07/22 11:09:32;;;;;;;1.75;0.60;;;;;;;25.99;69.04;99438.75;1730770;82;21007;-68
2022/07/22 11:12:00;;;;;;;2.95;0.80;;;;;;;26.08;69.51;99438.42;1721799;82;21608;-69
2022/07/22 11:14:31;;;;;;;1.42;0.65;;;;;;;26.18;68.45;99430.20;1731509;82;21544;-70
2022/07/22 11:17:08;;;;;;;3.40;0.65;;;;;;;26.22;63.43;99436.63;1721870;82;21090;-70
2022/07/22 11:19:39;;;;;;;2.90;0.85;;;;;;;26.12;64.61;99445.66;1717103;83;21047;-70
2022/07/22 11:22:09;;;;;;;6.90;0.90;;;;;;;26.05;63.91;99430.83;1721832;82;21075;-73
2022/07/22 11:24:35;;;;;;;1.07;0.60;;;;;;;25.94;63.23;99450.23;1731312;82;21304;-71
2022/07/22 11:27:03;;;;;;;2.62;0.70;;;;;;;25.79;63.80;99435.13;1741617;82;22223;-72
2022/07/22 11:29:35;;;;;;;2.47;0.80;;;;;;;25.70;62.77;99449.34;1740857;82;21905;-69
2022/07/22 11:32:05;;;;;;;1.70;0.70;;;;;;;25.56;63.08;99438.83;1759524;80;21039;-71
2022/07/22 11:34:32;;;;;;;1.50;0.70;;;;;;;25.56;65.99;99441.62;1725386;82;20990;-71
2022/07/22 11:36:58;;;;;;;2.08;0.80;;;;;;;25.66;67.16;99427.59;1729738;82;21061;-73
2022/07/22 11:39:27;;;;;;;2.98;0.70;;;;;;;25.81;69.28;99443.31;1729610;82;21037;-73